Time;durP1;ratioP1;P1;durP2;ratioP2;P2;SDS_P1;SDS_P2;PMS_P1;PMS_P2;Temp;Humidity;BMP_temperature;BMP_pressure;BME280_temperature;BME280_humidity;BME280_pressure;Samples;Min_cycle;Max_cycle;Signal;HPM_P1;HPM_P2
2023/07/12 00:01:29;;;;;;;;;;;19.80;99.90;;;;;;5113654;28;20373;-44
2023/07/12 00:03:55;;;;;;;;;;;19.70;99.90;;;;;;5113496;28;19912;-42
2023/07/12 00:06:25;;;;;;;;;;;19.70;99.90;;;;;;5122107;27;19918;-42
2023/07/12 00:08:51;;;;;;;;;;;19.70;99.90;;;;;;5113523;28;19926;-42
2023/07/12 00:11:17;;;;;;;;;;;19.70;99.90;;;;;;5113574;28;19911;-41
2023/07/12 00:13:43;;;;;;;;;;;19.70;99.90;;;;;;5112769;28;20311;-41
2023/07/12 00:16:20;;;;;;;;;;;19.60;99.90;;;;;;5113535;28;19954;-42
2023/07/12 00:18:45;;;;;;;;;;;19.60;99.90;;;;;;5113541;28;19908;-42
2023/07/12 00:21:12;;;;;;;;;;;19.50;99.90;;;;;;5112605;28;19921;-41
2023/07/12 00:23:38;;;;;;;;;;;19.50;99.90;;;;;;5113330;28;20366;-41
2023/07/12 00:26:10;;;;;;;;;;;19.50;99.90;;;;;;5113291;28;20011;-41
2023/07/12 00:28:35;;;;;;;;;;;19.50;99.90;;;;;;5112460;28;19912;-42
2023/07/12 00:31:01;;;;;;;;;;;19.50;99.90;;;;;;5113387;28;20324;-41
2023/07/12 00:33:26;;;;;;;;;;;19.50;99.90;;;;;;5113191;28;19907;-41
2023/07/12 00:35:52;;;;;;;;;;;19.50;99.90;;;;;;5112593;28;20358;-41
2023/07/12 00:38:17;;;;;;;;;;;19.50;99.90;;;;;;5095020;28;19908;-42
2023/07/12 00:40:53;;;;;;;;;;;19.50;99.90;;;;;;5112708;28;20014;-41
2023/07/12 00:43:37;;;;;;;;;;;19.50;99.90;;;;;;5112945;28;19936;-41
2023/07/12 00:46:09;;;;;;;;;;;19.50;99.90;;;;;;5112771;28;20323;-41
2023/07/12 00:48:34;;;;;;;;;;;19.50;99.90;;;;;;5112171;28;19934;-42
2023/07/12 00:51:01;;;;;;;;;;;19.40;99.90;;;;;;5123239;28;19907;-41
2023/07/12 00:53:30;;;;;;;;;;;19.40;99.90;;;;;;5133628;28;19922;-42
2023/07/12 00:56:06;;;;;;;;;;;19.40;99.90;;;;;;5132488;28;19911;-42
2023/07/12 00:58:37;;;;;;;;;;;19.40;99.90;;;;;;5130077;28;19908;-41
2023/07/12 01:01:03;;;;;;;;;;;19.40;99.90;;;;;;5133556;28;19979;-41
2023/07/12 01:03:31;;;;;;;;;;;19.40;99.90;;;;;;5132715;28;19907;-42
2023/07/12 01:05:56;;;;;;;;;;;19.40;99.90;;;;;;5133375;28;19916;-42
2023/07/12 01:08:22;;;;;;;;;;;19.30;99.90;;;;;;5113354;28;20065;-43
2023/07/12 01:10:48;;;;;;;;;;;19.30;99.90;;;;;;5112111;28;19919;-42
2023/07/12 01:13:13;;;;;;;;;;;19.30;99.90;;;;;;5112864;28;20395;-41
2023/07/12 01:15:39;;;;;;;;;;;19.20;99.90;;;;;;5112763;28;20359;-41
2023/07/12 01:18:06;;;;;;;;;;;19.20;99.90;;;;;;5119659;27;20319;-42
2023/07/12 01:20:36;;;;;;;;;;;19.10;99.90;;;;;;5137257;27;19908;-43
2023/07/12 01:23:02;;;;;;;;;;;19.10;99.90;;;;;;5131715;27;20281;-42
2023/07/12 01:25:31;;;;;;;;;;;19.00;99.90;;;;;;5137035;27;19926;-42
2023/07/12 01:27:57;;;;;;;;;;;18.90;99.90;;;;;;5121826;27;19934;-41
2023/07/12 01:30:22;;;;;;;;;;;18.90;99.90;;;;;;5116819;27;19908;-41
2023/07/12 01:32:48;;;;;;;;;;;18.90;99.90;;;;;;5137169;27;19911;-42
2023/07/12 01:35:14;;;;;;;;;;;18.90;99.90;;;;;;5137067;27;19911;-42
2023/07/12 01:37:39;;;;;;;;;;;18.90;99.90;;;;;;5136167;27;19907;-41
2023/07/12 01:40:08;;;;;;;;;;;18.90;99.90;;;;;;5136779;27;19925;-41
2023/07/12 01:42:33;;;;;;;;;;;18.90;99.90;;;;;;5136825;27;20280;-42
2023/07/12 01:44:58;;;;;;;;;;;18.90;99.90;;;;;;5136077;27;20362;-44
2023/07/12 01:47:24;;;;;;;;;;;18.90;99.90;;;;;;5136925;27;19907;-42
2023/07/12 01:49:49;;;;;;;;;;;18.90;99.90;;;;;;5136695;27;19915;-42
2023/07/12 01:52:15;;;;;;;;;;;18.80;99.90;;;;;;5136059;27;19907;-42
2023/07/12 01:54:40;;;;;;;;;;;18.80;99.90;;;;;;5136637;27;20319;-41
2023/07/12 01:57:06;;;;;;;;;;;18.70;99.90;;;;;;5136552;27;19961;-41
2023/07/12 01:59:32;;;;;;;;;;;18.70;99.90;;;;;;5135693;27;20384;-42
2023/07/12 02:01:57;;;;;;;;;;;18.60;99.90;;;;;;5134399;27;19911;-41
2023/07/12 02:04:23;;;;;;;;;;;18.60;99.90;;;;;;5136450;27;20059;-42
2023/07/12 02:06:48;;;;;;;;;;;18.60;99.90;;;;;;5135517;27;19916;-41
2023/07/12 02:09:14;;;;;;;;;;;18.60;99.90;;;;;;5136291;27;19907;-41
2023/07/12 02:11:39;;;;;;;;;;;18.60;99.90;;;;;;5139262;27;19918;-41
2023/07/12 02:14:05;;;;;;;;;;;18.50;99.90;;;;;;5135532;27;19960;-42
2023/07/12 02:16:30;;;;;;;;;;;18.50;99.90;;;;;;5136157;27;19907;-41
2023/07/12 02:18:56;;;;;;;;;;;18.40;99.90;;;;;;5137254;27;20005;-42
2023/07/12 02:21:21;;;;;;;;;;;18.30;99.90;;;;;;5135225;27;19920;-42
2023/07/12 02:23:47;;;;;;;;;;;18.30;99.90;;;;;;5136221;27;19945;-42
2023/07/12 02:26:12;;;;;;;;;;;18.30;99.90;;;;;;5136008;27;19941;-42
2023/07/12 02:28:38;;;;;;;;;;;18.30;99.90;;;;;;5135171;27;19934;-41
2023/07/12 02:31:13;;;;;;;;;;;18.30;99.90;;;;;;5132248;27;19912;-42
2023/07/12 02:33:38;;;;;;;;;;;18.20;99.90;;;;;;5114481;28;19912;-41
2023/07/12 02:36:04;;;;;;;;;;;18.20;99.90;;;;;;5115249;28;19914;-42
2023/07/12 02:38:30;;;;;;;;;;;18.20;99.90;;;;;;5115281;28;19908;-42
2023/07/12 02:40:55;;;;;;;;;;;18.20;99.90;;;;;;5113763;28;19974;-42
2023/07/12 02:43:20;;;;;;;;;;;18.20;99.90;;;;;;5127526;27;19914;-42
2023/07/12 02:45:47;;;;;;;;;;;18.10;99.90;;;;;;5135540;27;20377;-41
2023/07/12 02:48:12;;;;;;;;;;;18.10;99.90;;;;;;5134931;27;19939;-41
2023/07/12 02:50:37;;;;;;;;;;;18.10;99.90;;;;;;5135472;27;19935;-42
2023/07/12 02:53:13;;;;;;;;;;;18.10;99.90;;;;;;5132599;27;19935;-41
2023/07/12 02:55:38;;;;;;;;;;;18.10;99.90;;;;;;5114123;27;19961;-42
2023/07/12 02:58:04;;;;;;;;;;;18.10;99.90;;;;;;5119770;27;19911;-42
2023/07/12 03:00:29;;;;;;;;;;;18.10;99.90;;;;;;5114854;28;19908;-42
2023/07/12 03:02:55;;;;;;;;;;;18.10;99.90;;;;;;5114012;28;19908;-42
2023/07/12 03:05:22;;;;;;;;;;;18.00;99.90;;;;;;5114750;28;19969;-41
2023/07/12 03:07:47;;;;;;;;;;;18.00;99.90;;;;;;5114618;28;19908;-42
2023/07/12 03:10:13;;;;;;;;;;;18.10;99.90;;;;;;5113908;28;19916;-42
2023/07/12 03:12:38;;;;;;;;;;;18.10;99.90;;;;;;5114581;28;19953;-41
2023/07/12 03:15:04;;;;;;;;;;;18.10;99.90;;;;;;5114570;28;19914;-42
2023/07/12 03:17:29;;;;;;;;;;;18.00;99.90;;;;;;5113765;28;19990;-42
2023/07/12 03:19:55;;;;;;;;;;;18.00;99.90;;;;;;5126810;27;19911;-42
2023/07/12 03:22:20;;;;;;;;;;;18.10;99.90;;;;;;5134784;27;20274;-42
2023/07/12 03:24:46;;;;;;;;;;;18.10;99.90;;;;;;5134124;27;20063;-42
2023/07/12 03:27:11;;;;;;;;;;;18.10;99.90;;;;;;5134827;27;19955;-42
2023/07/12 03:29:37;;;;;;;;;;;18.10;99.90;;;;;;5134064;27;19994;-44
2023/07/12 03:32:04;;;;;;;;;;;18.10;99.90;;;;;;5134901;27;19916;-42
2023/07/12 03:34:31;;;;;;;;;;;18.10;99.90;;;;;;5134622;27;20380;-41
2023/07/12 03:36:56;;;;;;;;;;;18.10;99.90;;;;;;5133775;27;20004;-41
2023/07/12 03:39:22;;;;;;;;;;;18.00;99.90;;;;;;5133816;27;20016;-42
2023/07/12 03:41:47;;;;;;;;;;;17.90;99.90;;;;;;5134600;27;19918;-42
2023/07/12 03:44:13;;;;;;;;;;;17.90;99.90;;;;;;5133714;27;19923;-42
2023/07/12 03:46:38;;;;;;;;;;;17.90;99.90;;;;;;5133426;27;19911;-42
2023/07/12 03:49:04;;;;;;;;;;;17.90;99.90;;;;;;5128592;27;20407;-42
2023/07/12 03:51:29;;;;;;;;;;;17.90;99.90;;;;;;5113071;28;19908;-42
2023/07/12 03:53:55;;;;;;;;;;;17.90;99.90;;;;;;5113796;28;19961;-42
2023/07/12 03:56:21;;;;;;;;;;;17.90;99.90;;;;;;5141640;27;20010;-42
2023/07/12 03:58:46;;;;;;;;;;;17.90;99.90;;;;;;5154183;27;19954;-42
2023/07/12 04:01:12;;;;;;;;;;;17.90;99.90;;;;;;5155169;27;19960;-42
2023/07/12 04:03:38;;;;;;;;;;;17.90;99.90;;;;;;5154853;27;20002;-42
2023/07/12 04:06:05;;;;;;;;;;;17.90;99.90;;;;;;5154064;27;20005;-42
2023/07/12 04:08:31;;;;;;;;;;;17.90;99.90;;;;;;5154953;27;19949;-42
2023/07/12 04:10:56;;;;;;;;;;;17.90;99.90;;;;;;5154814;27;19915;-41
2023/07/12 04:13:23;;;;;;;;;;;17.80;99.90;;;;;;5150421;27;19964;-41
2023/07/12 04:15:52;;;;;;;;;;;17.80;99.90;;;;;;5134370;27;19921;-43
2023/07/12 04:18:18;;;;;;;;;;;17.80;99.90;;;;;;5130153;27;19907;-41
2023/07/12 04:20:43;;;;;;;;;;;17.90;99.90;;;;;;5125248;27;20281;-42
2023/07/12 04:23:09;;;;;;;;;;;17.80;99.90;;;;;;5113263;27;19912;-41
2023/07/12 04:25:35;;;;;;;;;;;17.80;99.90;;;;;;5113430;28;20267;-42
2023/07/12 04:28:00;;;;;;;;;;;17.80;99.90;;;;;;5112589;28;19915;-41
2023/07/12 04:30:26;;;;;;;;;;;17.90;99.90;;;;;;5113163;28;20321;-43
2023/07/12 04:32:52;;;;;;;;;;;17.80;99.90;;;;;;5130983;27;19990;-41
2023/07/12 04:35:18;;;;;;;;;;;17.90;99.90;;;;;;5133561;27;20362;-42
2023/07/12 04:37:50;;;;;;;;;;;17.90;99.90;;;;;;5115870;27;20012;-42
2023/07/12 04:40:17;;;;;;;;;;;17.80;99.90;;;;;;5112252;28;20263;-42
2023/07/12 04:42:42;;;;;;;;;;;17.80;99.90;;;;;;5113171;28;19908;-41
2023/07/12 04:45:10;;;;;;;;;;;17.80;99.90;;;;;;5145100;27;20400;-42
2023/07/12 04:47:36;;;;;;;;;;;17.70;99.90;;;;;;5123179;27;19919;-42
2023/07/12 04:50:06;;;;;;;;;;;17.70;99.90;;;;;;5114416;27;20003;-42
2023/07/12 04:52:31;;;;;;;;;;;17.80;99.90;;;;;;5115038;28;19912;-42
2023/07/12 04:54:57;;;;;;;;;;;17.70;99.90;;;;;;5116881;27;20049;-41
2023/07/12 04:57:23;;;;;;;;;;;17.70;99.90;;;;;;5151526;27;19938;-42
2023/07/12 04:59:49;;;;;;;;;;;17.70;99.90;;;;;;5158012;27;20372;-42
2023/07/12 05:02:15;;;;;;;;;;;17.60;99.90;;;;;;5157689;27;20446;-41
2023/07/12 05:04:40;;;;;;;;;;;17.60;99.90;;;;;;5158185;27;19915;-41
2023/07/12 05:07:09;;;;;;;;;;;17.60;99.90;;;;;;5158344;27;19994;-41
2023/07/12 05:09:35;;;;;;;;;;;17.70;99.90;;;;;;5134700;27;19912;-42
2023/07/12 05:12:01;;;;;;;;;;;17.60;99.90;;;;;;5128573;27;19919;-42
2023/07/12 05:14:26;;;;;;;;;;;17.60;99.90;;;;;;5133102;27;19915;-41
2023/07/12 05:16:52;;;;;;;;;;;17.60;99.90;;;;;;5136419;27;19950;-42
2023/07/12 05:19:17;;;;;;;;;;;17.70;99.90;;;;;;5137318;27;19908;-42
2023/07/12 05:21:43;;;;;;;;;;;17.70;99.90;;;;;;5149485;27;20281;-41
2023/07/12 05:24:09;;;;;;;;;;;17.60;99.90;;;;;;5157258;27;19907;-41
2023/07/12 05:26:34;;;;;;;;;;;17.60;99.90;;;;;;5157901;27;19911;-42
2023/07/12 05:29:00;;;;;;;;;;;17.70;99.90;;;;;;5158021;27;19907;-42
2023/07/12 05:31:26;;;;;;;;;;;17.70;99.90;;;;;;5157109;27;20381;-42
2023/07/12 05:33:51;;;;;;;;;;;17.80;99.90;;;;;;5157741;27;19914;-41
2023/07/12 05:36:17;;;;;;;;;;;17.80;99.90;;;;;;5157130;27;20299;-42
2023/07/12 05:38:43;;;;;;;;;;;17.80;99.90;;;;;;5147615;27;20388;-41
2023/07/12 05:41:08;;;;;;;;;;;17.80;99.90;;;;;;5136686;27;19919;-42
2023/07/12 05:43:34;;;;;;;;;;;17.80;99.90;;;;;;5136145;27;19908;-42
2023/07/12 05:45:59;;;;;;;;;;;17.80;99.90;;;;;;5144822;27;19919;-42
2023/07/12 05:48:25;;;;;;;;;;;17.80;99.90;;;;;;5137379;27;19911;-42
2023/07/12 05:50:52;;;;;;;;;;;17.80;99.90;;;;;;5137476;27;19918;-41
2023/07/12 05:53:18;;;;;;;;;;;17.80;99.90;;;;;;5157544;27;19914;-42
2023/07/12 05:55:43;;;;;;;;;;;17.80;99.90;;;;;;5157258;27;19911;-42
2023/07/12 05:58:09;;;;;;;;;;;17.80;99.90;;;;;;5149412;27;19998;-42
2023/07/12 06:00:34;;;;;;;;;;;17.80;99.90;;;;;;5148118;27;19915;-41
2023/07/12 06:03:00;;;;;;;;;;;17.80;99.90;;;;;;5135876;27;20057;-41
2023/07/12 06:05:26;;;;;;;;;;;17.80;99.90;;;;;;5144315;27;19915;-41
2023/07/12 06:07:51;;;;;;;;;;;17.90;99.90;;;;;;5154418;27;19998;-41
2023/07/12 06:10:17;;;;;;;;;;;17.90;99.90;;;;;;5144580;27;19907;-41
2023/07/12 06:12:43;;;;;;;;;;;18.00;99.90;;;;;;5135128;27;19912;-42
2023/07/12 06:15:09;;;;;;;;;;;18.10;99.90;;;;;;5144139;27;19980;-42
2023/07/12 06:17:34;;;;;;;;;;;18.20;99.90;;;;;;5145125;27;19911;-42
2023/07/12 06:20:00;;;;;;;;;;;18.30;99.90;;;;;;5141981;27;20384;-42
2023/07/12 06:22:25;;;;;;;;;;;18.30;99.90;;;;;;5144891;27;20354;-42
2023/07/12 06:24:51;;;;;;;;;;;18.30;99.90;;;;;;5156696;27;19960;-41
2023/07/12 06:27:16;;;;;;;;;;;18.30;99.90;;;;;;5147869;27;19911;-41
2023/07/12 06:29:42;;;;;;;;;;;18.30;99.90;;;;;;5140862;27;20021;-41
2023/07/12 06:32:09;;;;;;;;;;;18.30;99.90;;;;;;5132787;27;20469;-42
2023/07/12 06:34:35;;;;;;;;;;;18.30;99.90;;;;;;5134160;27;19949;-41
2023/07/12 06:37:00;;;;;;;;;;;18.40;99.90;;;;;;5132734;27;19907;-41
2023/07/12 06:39:26;;;;;;;;;;;18.40;99.90;;;;;;5134749;27;20266;-42
2023/07/12 06:41:51;;;;;;;;;;;18.40;99.90;;;;;;5135131;27;19970;-41
2023/07/12 06:44:17;;;;;;;;;;;18.30;99.90;;;;;;5135622;27;20437;-41
2023/07/12 06:46:42;;;;;;;;;;;18.20;99.90;;;;;;5134836;27;19999;-42
2023/07/12 06:49:09;;;;;;;;;;;18.20;99.90;;;;;;5135732;27;20007;-42
2023/07/12 06:51:34;;;;;;;;;;;18.20;99.90;;;;;;5135414;27;19917;-41
2023/07/12 06:54:01;;;;;;;;;;;18.30;99.90;;;;;;5134744;27;20006;-41
2023/07/12 06:56:26;;;;;;;;;;;18.40;99.90;;;;;;5134360;27;19911;-41
2023/07/12 06:58:52;;;;;;;;;;;18.50;99.90;;;;;;5134762;27;19949;-41
2023/07/12 07:01:17;;;;;;;;;;;18.50;99.90;;;;;;5134716;27;19972;-41
2023/07/12 07:03:43;;;;;;;;;;;18.60;99.90;;;;;;5135230;27;20005;-41
2023/07/12 07:06:08;;;;;;;;;;;18.70;99.90;;;;;;5135366;27;19915;-41
2023/07/12 07:08:34;;;;;;;;;;;18.70;99.90;;;;;;5126513;27;20018;-42
2023/07/12 07:11:00;;;;;;;;;;;18.80;99.90;;;;;;5114803;28;20346;-41
2023/07/12 07:13:26;;;;;;;;;;;18.70;99.90;;;;;;5114741;28;19953;-42
2023/07/12 07:15:51;;;;;;;;;;;18.70;99.90;;;;;;5112670;27;19911;-42
2023/07/12 07:18:17;;;;;;;;;;;18.80;99.90;;;;;;5135364;27;20362;-41
2023/07/12 07:20:43;;;;;;;;;;;18.90;99.90;;;;;;5127173;27;20336;-42
2023/07/12 07:23:09;;;;;;;;;;;18.90;99.90;;;;;;5154412;27;20292;-41
2023/07/12 07:25:35;;;;;;;;;;;18.90;99.90;;;;;;5155582;27;19960;-41
2023/07/12 07:28:01;;;;;;;;;;;19.00;99.90;;;;;;5143728;27;20309;-41
2023/07/12 07:30:26;;;;;;;;;;;19.00;99.90;;;;;;5119255;27;19918;-41
2023/07/12 07:32:54;;;;;;;;;;;19.00;99.90;;;;;;5120663;27;19916;-42
2023/07/12 07:35:20;;;;;;;;;;;18.90;99.90;;;;;;5114303;28;19908;-41
2023/07/12 07:37:46;;;;;;;;;;;19.00;99.90;;;;;;5113181;28;19907;-41
2023/07/12 07:40:12;;;;;;;;;;;19.10;99.90;;;;;;5121401;27;19968;-41
2023/07/12 07:42:37;;;;;;;;;;;19.30;99.90;;;;;;5124577;27;19947;-42
2023/07/12 07:45:03;;;;;;;;;;;19.30;99.90;;;;;;5116833;27;20030;-42
2023/07/12 07:47:28;;;;;;;;;;;19.40;99.90;;;;;;5118798;27;19919;-42
2023/07/12 07:49:54;;;;;;;;;;;19.50;99.90;;;;;;5117300;27;20373;-42
2023/07/12 07:52:19;;;;;;;;;;;19.50;99.90;;;;;;5132816;27;19911;-42
2023/07/12 07:54:45;;;;;;;;;;;19.50;99.90;;;;;;5155928;27;20040;-43
2023/07/12 07:57:10;;;;;;;;;;;19.60;99.90;;;;;;5123270;27;19943;-44
2023/07/12 07:59:36;;;;;;;;;;;19.60;99.90;;;;;;5121674;27;19911;-42
2023/07/12 08:02:01;;;;;;;;;;;19.70;99.90;;;;;;5136962;27;19911;-42
2023/07/12 08:04:27;;;;;;;;;;;19.70;99.90;;;;;;5140200;27;20281;-42
2023/07/12 08:06:52;;;;;;;;;;;19.70;99.90;;;;;;5131446;27;19911;-41
2023/07/12 08:09:18;;;;;;;;;;;19.80;99.90;;;;;;5130065;27;19911;-41
2023/07/12 08:11:43;;;;;;;;;;;19.90;99.90;;;;;;5114888;27;19915;-42
2023/07/12 08:14:09;;;;;;;;;;;19.90;99.90;;;;;;5116014;27;19912;-41
2023/07/12 08:16:36;;;;;;;;;;;19.90;99.90;;;;;;5121221;27;19934;-40
2023/07/12 08:19:02;;;;;;;;;;;19.90;99.90;;;;;;5135239;27;19908;-42
2023/07/12 08:21:28;;;;;;;;;;;19.90;99.90;;;;;;5135972;27;19952;-42
2023/07/12 08:23:54;;;;;;;;;;;20.00;99.90;;;;;;5134656;27;19915;-41
2023/07/12 08:26:19;;;;;;;;;;;20.10;99.90;;;;;;5132257;27;19916;-41
2023/07/12 08:28:45;;;;;;;;;;;20.30;99.90;;;;;;5116725;27;20315;-43
2023/07/12 08:31:10;;;;;;;;;;;20.40;99.90;;;;;;5149625;27;19911;-42
2023/07/12 08:33:36;;;;;;;;;;;20.50;99.90;;;;;;5154699;27;19954;-42
2023/07/12 08:36:02;;;;;;;;;;;20.50;99.90;;;;;;5155162;27;20375;-42
2023/07/12 08:38:31;;;;;;;;;;;20.50;99.90;;;;;;5155305;27;19911;-43
2023/07/12 08:40:57;;;;;;;;;;;20.50;99.90;;;;;;5154353;27;19934;-41
2023/07/12 08:43:25;;;;;;;;;;;20.50;99.90;;;;;;5155061;27;20352;-42
2023/07/12 08:45:53;;;;;;;;;;;20.60;99.90;;;;;;5155030;27;20345;-42
2023/07/12 08:48:20;;;;;;;;;;;20.50;99.90;;;;;;5154685;27;19907;-42
2023/07/12 08:50:46;;;;;;;;;;;20.50;99.90;;;;;;5146607;27;20047;-42
2023/07/12 08:53:17;;;;;;;;;;;20.40;99.90;;;;;;5132708;27;19943;-43
2023/07/12 08:55:43;;;;;;;;;;;20.40;99.90;;;;;;5134054;28;19908;-41
2023/07/12 08:58:21;;;;;;;;;;;20.50;99.90;;;;;;5126839;28;19923;-43
2023/07/12 09:00:50;;;;;;;;;;;20.70;99.90;;;;;;5145726;27;19994;-42
2023/07/12 09:03:16;;;;;;;;;;;20.70;99.90;;;;;;5122521;28;19912;-43
2023/07/12 09:05:41;;;;;;;;;;;20.70;99.90;;;;;;5118211;28;19926;-41
2023/07/12 09:08:15;;;;;;;;;;;20.50;99.90;;;;;;5132506;28;20307;-42
2023/07/12 09:10:44;;;;;;;;;;;20.40;99.90;;;;;;5133024;28;19921;-43
2023/07/12 09:13:11;;;;;;;;;;;20.30;99.90;;;;;;5133429;28;19911;-42
2023/07/12 09:15:39;;;;;;;;;;;20.10;99.90;;;;;;5132557;28;19915;-42
2023/07/12 09:18:06;;;;;;;;;;;19.80;99.90;;;;;;5133112;28;19911;-42
2023/07/12 09:20:33;;;;;;;;;;;19.40;99.90;;;;;;5133030;28;19911;-40
2023/07/12 09:22:59;;;;;;;;;;;19.20;99.90;;;;;;5131531;28;20006;-40
2023/07/12 09:25:34;;;;;;;;;;;18.90;99.90;;;;;;5132246;28;19915;-40
2023/07/12 09:28:00;;;;;;;;;;;18.70;99.90;;;;;;5132837;28;19998;-40
2023/07/12 09:30:27;;;;;;;;;;;18.70;99.90;;;;;;5131984;28;20392;-41
2023/07/12 09:32:53;;;;;;;;;;;18.70;99.90;;;;;;5120382;28;20006;-41
2023/07/12 09:35:24;;;;;;;;;;;18.60;99.90;;;;;;5122939;28;19918;-41
2023/07/12 09:37:56;;;;;;;;;;;18.60;99.90;;;;;;5117916;28;19916;-40
2023/07/12 09:40:21;;;;;;;;;;;18.70;99.90;;;;;;5132547;27;19919;-41
2023/07/12 09:42:48;;;;;;;;;;;18.70;99.90;;;;;;5134282;27;20339;-40
2023/07/12 09:45:13;;;;;;;;;;;18.80;99.90;;;;;;5136784;27;19993;-40
2023/07/12 09:47:57;;;;;;;;;;;19.10;99.90;;;;;;5123672;27;19912;-42
2023/07/12 09:50:27;;;;;;;;;;;19.30;99.90;;;;;;5123485;27;20017;-41
2023/07/12 09:52:52;;;;;;;;;;;19.50;99.90;;;;;;5116762;27;19915;-41
2023/07/12 09:55:29;;;;;;;;;;;19.70;99.90;;;;;;5115827;28;20048;-40
2023/07/12 09:58:05;;;;;;;;;;;20.00;99.90;;;;;;5116267;28;19908;-40
2023/07/12 10:00:37;;;;;;;;;;;20.10;99.90;;;;;;5116705;28;19908;-40
2023/07/12 10:03:21;;;;;;;;;;;20.00;99.90;;;;;;5116803;28;19908;-40
2023/07/12 10:05:54;;;;;;;;;;;19.90;99.90;;;;;;5115976;28;19952;-40
2023/07/12 10:08:21;;;;;;;;;;;20.20;99.90;;;;;;5132138;27;20258;-41
2023/07/12 10:11:03;;;;;;;;;;;20.40;99.90;;;;;;5123718;27;19915;-42
2023/07/12 10:13:49;;;;;;;;;;;20.40;99.90;;;;;;5126180;27;19918;-43
2023/07/12 10:16:21;;;;;;;;;;;20.40;99.90;;;;;;5123801;27;19972;-42
2023/07/12 10:18:48;;;;;;;;;;;19.90;99.90;;;;;;5115864;28;19907;-41
2023/07/12 10:21:17;;;;;;;;;;;19.40;99.90;;;;;;5128828;27;19911;-42
2023/07/12 10:23:45;;;;;;;;;;;19.10;99.90;;;;;;5133637;27;19907;-41
2023/07/12 10:26:12;;;;;;;;;;;18.90;99.90;;;;;;5136389;27;19919;-43
2023/07/12 10:28:44;;;;;;;;;;;18.80;99.90;;;;;;5156921;27;20369;-41
2023/07/12 10:31:31;;;;;;;;;;;18.60;99.90;;;;;;5136833;27;19986;-43
2023/07/12 10:34:02;;;;;;;;;;;18.50;99.90;;;;;;5136329;27;19913;-41
2023/07/12 10:36:29;;;;;;;;;;;18.40;99.90;;;;;;5136768;27;20280;-42
2023/07/12 10:38:54;;;;;;;;;;;18.50;99.90;;;;;;5135914;27;20033;-42
2023/07/12 10:41:24;;;;;;;;;;;18.50;99.90;;;;;;5124851;27;20392;-42
2023/07/12 10:44:04;;;;;;;;;;;18.50;99.90;;;;;;5115837;28;19915;-43
2023/07/12 10:46:42;;;;;;;;;;;18.60;99.90;;;;;;5115478;28;20358;-43
2023/07/12 10:49:19;;;;;;;;;;;18.80;99.90;;;;;;5129968;27;19959;-42
2023/07/12 10:52:05;;;;;;;;;;;19.20;99.90;;;;;;5142293;27;19967;-41
2023/07/12 10:54:30;;;;;;;;;;;19.50;99.90;;;;;;5155006;27;19999;-42
2023/07/12 10:57:16;;;;;;;;;;;19.80;99.90;;;;;;5156951;27;20347;-42
2023/07/12 10:59:44;;;;;;;;;;;20.10;99.90;;;;;;5155732;27;19907;-40
2023/07/12 11:02:25;;;;;;;;;;;20.30;99.90;;;;;;5153241;27;19918;-41
2023/07/12 11:04:51;;;;;;;;;;;20.40;99.90;;;;;;5135989;27;19930;-41
2023/07/12 11:07:16;;;;;;;;;;;20.40;99.90;;;;;;5135580;27;19908;-40
2023/07/12 11:09:42;;;;;;;;;;;20.60;99.90;;;;;;5136087;27;19922;-43
2023/07/12 11:12:08;;;;;;;;;;;20.70;99.90;;;;;;5135947;27;19908;-41
2023/07/12 11:14:36;;;;;;;;;;;20.80;99.90;;;;;;5134907;27;19998;-41
2023/07/12 11:17:11;;;;;;;;;;;20.70;99.90;;;;;;5129752;27;19990;-41
2023/07/12 11:19:39;;;;;;;;;;;20.70;99.90;;;;;;5120501;27;19912;-42
2023/07/12 11:22:42;;;;;;;;;;;20.70;99.90;;;;;;5118053;27;19928;-41
2023/07/12 11:25:21;;;;;;;;;;;20.80;99.90;;;;;;5119640;27;19955;-41
2023/07/12 11:27:47;;;;;;;;;;;21.10;99.90;;;;;;5124663;27;19973;-42
2023/07/12 11:30:12;;;;;;;;;;;21.00;99.90;;;;;;5126424;27;20350;-41
2023/07/12 11:32:38;;;;;;;;;;;21.00;99.90;;;;;;5130822;27;19908;-41
2023/07/12 11:35:12;;;;;;;;;;;20.80;99.90;;;;;;5113593;28;19908;-41
2023/07/12 11:37:41;;;;;;;;;;;20.70;99.90;;;;;;5116733;27;19912;-41
2023/07/12 11:40:20;;;;;;;;;;;20.60;99.90;;;;;;5121864;27;19927;-41
2023/07/12 11:42:46;;;;;;;;;;;20.60;99.90;;;;;;5138783;27;19922;-41
2023/07/12 11:45:14;;;;;;;;;;;20.60;99.90;;;;;;5121789;27;19915;-41
2023/07/12 11:47:51;;;;;;;;;;;20.60;99.90;;;;;;5141938;27;21452;-41
2023/07/12 11:50:20;;;;;;;;;;;20.60;99.90;;;;;;5129090;27;19916;-40
2023/07/12 11:52:47;;;;;;;;;;;20.60;99.90;;;;;;5119961;27;19918;-40
2023/07/12 11:55:14;;;;;;;;;;;20.70;99.90;;;;;;5116279;27;19962;-41
2023/07/12 11:57:40;;;;;;;;;;;21.00;99.90;;;;;;5118440;27;20014;-42
2023/07/12 12:00:16;;;;;;;;;;;21.30;99.90;;;;;;5110831;28;20002;-41
2023/07/12 12:02:45;;;;;;;;;;;21.50;99.90;;;;;;5130355;27;20336;-41
2023/07/12 12:05:16;;;;;;;;;;;21.80;99.90;;;;;;5139945;27;19923;-41
2023/07/12 12:07:41;;;;;;;;;;;22.00;99.90;;;;;;5132042;27;19915;-41
2023/07/12 12:10:18;;;;;;;;;;;22.00;99.90;;;;;;5130392;27;19907;-41
2023/07/12 12:12:46;;;;;;;;;;;22.10;99.90;;;;;;5131370;27;19911;-41
2023/07/12 12:15:22;;;;;;;;;;;22.10;99.90;;;;;;5132333;27;19907;-42
2023/07/12 12:17:48;;;;;;;;;;;22.00;99.90;;;;;;5131486;27;19911;-42
2023/07/12 12:20:19;;;;;;;;;;;21.90;99.90;;;;;;5132920;27;19908;-41
2023/07/12 12:23:08;;;;;;;;;;;21.90;99.90;;;;;;5127483;27;19937;-42
2023/07/12 12:25:42;;;;;;;;;;;22.10;99.90;;;;;;5114110;27;20168;-41
2023/07/12 12:28:18;;;;;;;;;;;22.30;99.90;;;;;;5134056;27;19907;-41
2023/07/12 12:30:55;;;;;;;;;;;22.60;99.90;;;;;;5133879;27;19907;-41
2023/07/12 12:33:22;;;;;;;;;;;22.80;99.90;;;;;;5133212;27;19908;-42
2023/07/12 12:35:52;;;;;;;;;;;23.00;99.90;;;;;;5146651;27;20351;-41
2023/07/12 12:38:19;;;;;;;;;;;23.00;99.90;;;;;;5153767;27;19907;-42
2023/07/12 12:40:53;;;;;;;;;;;22.70;99.90;;;;;;5154154;27;19923;-41
2023/07/12 12:43:19;;;;;;;;;;;22.50;99.90;;;;;;5154542;27;19964;-41
2023/07/12 12:45:44;;;;;;;;;;;22.60;99.90;;;;;;5133968;27;19968;-42
2023/07/12 12:48:11;;;;;;;;;;;22.60;99.90;;;;;;5126429;28;19912;-42
2023/07/12 12:50:37;;;;;;;;;;;22.80;99.90;;;;;;5120647;28;20254;-43
2023/07/12 12:53:04;;;;;;;;;;;23.00;99.90;;;;;;5114837;27;19935;-40
2023/07/12 12:55:30;;;;;;;;;;;23.20;99.90;;;;;;5128912;28;19911;-40
2023/07/12 12:57:56;;;;;;;;;;;23.40;99.90;;;;;;5132516;28;19908;-40
2023/07/12 13:00:22;;;;;;;;;;;23.50;99.90;;;;;;5131618;28;19907;-40
2023/07/12 13:02:48;;;;;;;;;;;23.50;99.90;;;;;;5131661;28;20335;-41
2023/07/12 13:05:14;;;;;;;;;;;23.50;99.90;;;;;;5131661;28;20031;-41
2023/07/12 13:07:41;;;;;;;;;;;23.80;99.90;;;;;;5131732;28;20348;-40
2023/07/12 13:10:12;;;;;;;;;;;24.00;99.90;;;;;;5132685;28;19958;-41
2023/07/12 13:12:38;;;;;;;;;;;24.40;99.90;;;;;;5133148;27;19907;-41
2023/07/12 13:15:04;;;;;;;;;;;24.50;99.90;;;;;;5135214;27;19915;-42
2023/07/12 13:17:30;;;;;;;;;;;24.70;99.90;;;;;;5136569;27;19952;-42
2023/07/12 13:19:56;;;;;;;;;;;24.80;99.90;;;;;;5135909;27;19915;-40
2023/07/12 13:22:22;;;;;;;;;;;24.80;99.90;;;;;;5135612;27;19907;-40
2023/07/12 13:24:48;;;;;;;;;;;24.60;99.90;;;;;;5138795;27;19923;-41
2023/07/12 13:27:25;;;;;;;;;;;24.40;96.40;;;;;;5156166;27;19907;-42
2023/07/12 13:29:51;;;;;;;;;;;24.60;99.90;;;;;;5137968;27;19966;-40
2023/07/12 13:32:17;;;;;;;;;;;24.60;99.90;;;;;;5115753;27;19920;-42
2023/07/12 13:34:43;;;;;;;;;;;24.70;99.90;;;;;;5119420;27;19919;-41
2023/07/12 13:37:28;;;;;;;;;;;24.90;99.90;;;;;;5121070;27;19968;-41
2023/07/12 13:39:54;;;;;;;;;;;25.10;99.90;;;;;;5116732;27;19927;-40
2023/07/12 13:42:19;;;;;;;;;;;25.20;99.90;;;;;;5115541;27;19912;-41
2023/07/12 13:44:45;;;;;;;;;;;25.30;99.90;;;;;;5132664;27;19926;-42
2023/07/12 13:47:13;;;;;;;;;;;25.60;99.90;;;;;;5135397;27;20330;-41
2023/07/12 13:49:39;;;;;;;;;;;25.80;99.90;;;;;;5126688;27;19918;-41
2023/07/12 13:52:04;;;;;;;;;;;25.80;99.90;;;;;;5136277;27;19911;-41
2023/07/12 13:54:30;;;;;;;;;;;25.80;99.90;;;;;;5134571;27;19943;-43
2023/07/12 13:56:58;;;;;;;;;;;25.90;99.70;;;;;;5128215;27;20305;-42
2023/07/12 13:59:23;;;;;;;;;;;26.00;99.90;;;;;;5127306;27;19912;-41
2023/07/12 14:01:49;;;;;;;;;;;26.20;99.90;;;;;;5121103;27;19918;-41
2023/07/12 14:04:15;;;;;;;;;;;26.00;99.90;;;;;;5133532;27;19922;-43
2023/07/12 14:06:41;;;;;;;;;;;25.90;99.90;;;;;;5122550;27;20002;-42
2023/07/12 14:09:07;;;;;;;;;;;25.50;99.90;;;;;;5115184;28;20019;-42
2023/07/12 14:11:33;;;;;;;;;;;25.10;99.90;;;;;;5126727;27;19919;-41
2023/07/12 14:13:58;;;;;;;;;;;25.10;99.90;;;;;;5121663;27;19911;-42
2023/07/12 14:16:25;;;;;;;;;;;25.60;99.90;;;;;;5115406;27;20430;-42
2023/07/12 14:18:50;;;;;;;;;;;25.90;99.90;;;;;;5115034;28;19908;-43